Time;durP1;ratioP1;P1;durP2;ratioP2;P2;SDS_P1;SDS_P2;PMS_P1;PMS_P2;Temp;Humidity;BMP_temperature;BMP_pressure;BME280_temperature;BME280_humidity;BME280_pressure;Samples;Min_cycle;Max_cycle;Signal;HPM_P1;HPM_P2
2023/12/24 00:02:22;;;;;;;4.83;4.33;;;9.40;99.90;;;;;;4990749;28;20188;-74
2023/12/24 00:04:49;;;;;;;6.63;2.77;;;9.40;99.90;;;;;;4994011;28;20191;-74
2023/12/24 00:07:16;;;;;;;5.60;2.40;;;9.40;99.90;;;;;;4991636;28;20625;-74
2023/12/24 00:09:41;;;;;;;6.40;2.60;;;9.40;99.90;;;;;;4991575;28;20477;-74
2023/12/24 00:12:07;;;;;;;7.23;3.23;;;9.40;99.90;;;;;;4991511;28;20888;-74
2023/12/24 00:14:33;;;;;;;5.30;4.00;;;9.40;99.90;;;;;;4989777;28;20238;-74
2023/12/24 00:16:59;;;;;;;5.13;2.20;;;9.40;99.90;;;;;;4990688;28;20189;-74
2023/12/24 00:19:24;;;;;;;4.67;2.83;;;9.40;99.90;;;;;;4990753;28;20184;-75
2023/12/24 00:21:51;;;;;;;4.60;2.87;;;9.40;99.90;;;;;;4991578;28;20179;-74
2023/12/24 00:24:18;;;;;;;4.77;2.43;;;9.40;99.90;;;;;;4989526;28;20236;-74
2023/12/24 00:26:43;;;;;;;4.80;2.40;;;9.40;99.90;;;;;;4989064;28;20438;-74
2023/12/24 00:29:09;;;;;;;3.93;2.60;;;9.40;99.90;;;;;;4989324;28;20473;-74
2023/12/24 00:31:35;;;;;;;6.97;2.27;;;9.40;99.90;;;;;;4989007;28;21054;-74
2023/12/24 00:34:00;;;;;;;3.60;1.90;;;9.40;99.90;;;;;;4993885;28;20265;-74
2023/12/24 00:36:26;;;;;;;4.43;2.43;;;9.40;99.90;;;;;;4989221;28;20768;-74
2023/12/24 00:38:51;;;;;;;4.43;2.50;;;9.40;99.90;;;;;;4990616;28;20184;-73
2023/12/24 00:41:17;;;;;;;6.03;2.20;;;9.40;99.90;;;;;;4988971;28;20210;-74
2023/12/24 00:43:45;;;;;;;10.53;2.90;;;9.40;99.90;;;;;;4990476;28;20202;-74
2023/12/24 00:46:17;;;;;;;5.93;2.90;;;9.30;99.90;;;;;;4986869;28;20194;-75
2023/12/24 00:48:43;;;;;;;10.80;2.00;;;9.40;99.90;;;;;;4990293;28;20478;-74
2023/12/24 00:51:09;;;;;;;4.13;2.27;;;9.40;99.90;;;;;;4989571;28;20430;-73
2023/12/24 00:53:36;;;;;;;6.03;2.23;;;9.40;99.90;;;;;;4989759;28;20433;-74
2023/12/24 00:56:01;;;;;;;3.10;2.13;;;9.40;99.90;;;;;;4987759;28;20926;-73
2023/12/24 00:58:27;;;;;;;7.53;2.90;;;9.40;99.90;;;;;;5091659;27;20418;-75
2023/12/24 01:00:53;;;;;;;3.10;2.60;;;9.50;99.90;;;;;;4991328;28;20190;-75
2023/12/24 01:03:19;;;;;;;4.50;2.00;;;9.50;99.90;;;;;;4991245;28;20172;-73
2023/12/24 01:05:45;;;;;;;5.73;2.60;;;9.50;99.90;;;;;;4994940;28;20191;-75
2023/12/24 01:08:11;;;;;;;5.30;2.37;;;9.50;99.90;;;;;;4992026;28;20468;-73
2023/12/24 01:10:37;;;;;;;3.30;2.30;;;9.50;99.90;;;;;;4992537;28;20427;-74
2023/12/24 01:13:03;;;;;;;4.40;2.10;;;9.50;99.90;;;;;;4990629;28;20184;-73
2023/12/24 01:15:28;;;;;;;5.87;2.27;;;9.50;99.90;;;;;;4991908;28;20285;-73
2023/12/24 01:17:54;;;;;;;5.27;2.13;;;9.50;99.90;;;;;;4987879;28;20587;-74
2023/12/24 01:20:20;;;;;;;4.10;2.50;;;9.50;99.90;;;;;;4990057;28;20183;-74
2023/12/24 01:22:46;;;;;;;3.90;2.73;;;9.50;99.90;;;;;;4992968;28;20183;-73
2023/12/24 01:25:12;;;;;;;3.73;2.13;;;9.50;99.90;;;;;;4991973;28;20813;-73
2023/12/24 01:27:37;;;;;;;4.50;2.50;;;9.50;99.90;;;;;;4991355;28;20537;-73
2023/12/24 01:30:04;;;;;;;3.90;2.70;;;9.50;99.90;;;;;;4992377;28;20443;-73
2023/12/24 01:32:30;;;;;;;4.40;2.27;;;9.50;99.90;;;;;;4990086;28;21105;-73
2023/12/24 01:34:57;;;;;;;6.50;2.10;;;9.50;99.90;;;;;;4992153;28;20427;-74
2023/12/24 01:37:23;;;;;;;4.43;2.10;;;9.50;99.90;;;;;;4990969;28;20447;-74
2023/12/24 01:39:48;;;;;;;6.83;2.20;;;9.50;99.90;;;;;;4992637;28;20419;-74
2023/12/24 01:42:14;;;;;;;3.40;2.30;;;9.50;99.90;;;;;;4991616;28;20188;-73
2023/12/24 01:44:40;;;;;;;4.90;2.30;;;9.50;99.90;;;;;;4992188;28;20270;-73
2023/12/24 01:47:07;;;;;;;3.60;2.23;;;9.50;99.90;;;;;;4992037;28;20705;-73
2023/12/24 01:49:33;;;;;;;7.40;2.40;;;9.50;99.90;;;;;;4991636;28;20215;-74
2023/12/24 01:51:59;;;;;;;2.33;2.13;;;9.50;99.90;;;;;;4989530;28;20449;-73
2023/12/24 01:54:26;;;;;;;2.60;1.97;;;9.50;99.90;;;;;;4987782;28;20958;-74
2023/12/24 01:56:51;;;;;;;6.10;2.37;;;9.50;99.90;;;;;;4991746;28;20491;-73
2023/12/24 01:59:17;;;;;;;3.00;1.73;;;9.50;99.90;;;;;;4990793;28;20932;-73
2023/12/24 02:01:44;;;;;;;3.63;1.70;;;9.50;99.90;;;;;;4992752;28;20195;-74
2023/12/24 02:04:11;;;;;;;5.43;2.90;;;9.50;99.90;;;;;;4991606;28;20183;-74
2023/12/24 02:06:36;;;;;;;2.47;2.27;;;9.50;99.90;;;;;;4992483;28;20495;-74
2023/12/24 02:09:02;;;;;;;3.03;2.20;;;9.50;99.90;;;;;;4992086;28;20478;-73
2023/12/24 02:11:28;;;;;;;3.13;2.40;;;9.40;99.90;;;;;;4987238;28;20203;-74
2023/12/24 02:13:54;;;;;;;4.13;2.10;;;9.40;99.90;;;;;;4988280;28;20188;-74
2023/12/24 02:16:22;;;;;;;7.20;2.57;;;9.40;99.90;;;;;;4990569;28;20338;-74
2023/12/24 02:18:48;;;;;;;3.93;2.03;;;9.40;99.90;;;;;;4991608;28;20423;-73
2023/12/24 02:21:14;;;;;;;4.63;2.13;;;9.40;99.90;;;;;;4990605;28;20438;-74
2023/12/24 02:23:40;;;;;;;3.83;2.03;;;9.40;99.90;;;;;;4993793;28;20438;-74
2023/12/24 02:26:14;;;;;;;1.70;1.60;;;9.40;99.90;;;;;;4991856;28;20195;-72
2023/12/24 02:28:44;;;;;;;8.23;1.50;;;9.50;99.90;;;;;;4993835;28;20232;-73
2023/12/24 02:31:12;;;;;;;7.57;1.43;;;9.40;99.90;;;;;;4990793;28;20469;-73
2023/12/24 02:33:41;;;;;;;5.37;1.90;;;9.50;99.90;;;;;;4996691;28;20435;-73
2023/12/24 02:36:12;;;;;;;3.00;1.70;;;9.50;99.90;;;;;;4992311;28;20427;-73
2023/12/24 02:38:37;;;;;;;5.07;2.00;;;9.50;99.90;;;;;;4993785;28;20434;-73
2023/12/24 02:41:04;;;;;;;3.40;1.30;;;9.50;99.90;;;;;;4991950;28;20446;-73
2023/12/24 02:43:34;;;;;;;4.70;1.17;;;9.50;99.90;;;;;;4988180;28;20192;-74
2023/12/24 02:46:00;;;;;;;1.97;1.20;;;9.50;99.90;;;;;;4990599;28;20430;-74
2023/12/24 02:48:26;;;;;;;1.90;1.27;;;9.50;99.90;;;;;;4988426;28;20586;-73
2023/12/24 02:50:52;;;;;;;3.27;1.10;;;9.50;99.90;;;;;;4989054;28;20462;-74
2023/12/24 02:53:18;;;;;;;2.27;1.43;;;9.50;99.90;;;;;;4990087;28;20431;-73
2023/12/24 02:55:44;;;;;;;2.30;1.70;;;9.50;99.90;;;;;;4993525;28;20426;-73
2023/12/24 02:58:09;;;;;;;2.20;1.20;;;9.60;99.90;;;;;;4992362;28;20649;-73
2023/12/24 03:00:35;;;;;;;6.37;1.27;;;9.60;99.90;;;;;;4993886;28;20184;-73
2023/12/24 03:03:01;;;;;;;4.20;1.47;;;9.50;99.90;;;;;;4991396;28;20245;-73
2023/12/24 03:05:26;;;;;;;1.77;1.23;;;9.50;99.90;;;;;;4994243;28;20195;-73
2023/12/24 03:07:52;;;;;;;2.57;1.47;;;9.50;99.90;;;;;;4992853;28;20227;-73
2023/12/24 03:10:17;;;;;;;3.73;1.40;;;9.50;99.90;;;;;;4991929;28;20303;-73
2023/12/24 03:12:43;;;;;;;1.37;1.10;;;9.50;99.90;;;;;;4991052;28;20550;-74
2023/12/24 03:15:11;;;;;;;1.97;1.53;;;9.40;99.90;;;;;;4987900;28;20228;-74
2023/12/24 03:17:37;;;;;;;3.43;1.97;;;9.40;99.90;;;;;;4993841;28;20581;-74
2023/12/24 03:20:03;;;;;;;2.87;1.30;;;9.40;99.90;;;;;;4966718;28;20511;-73
2023/12/24 03:22:29;;;;;;;3.03;1.80;;;9.40;99.90;;;;;;4993410;28;20434;-74
2023/12/24 03:24:55;;;;;;;2.40;1.33;;;9.40;99.90;;;;;;4991328;28;20446;-74
2023/12/24 03:27:20;;;;;;;1.70;1.50;;;9.40;99.90;;;;;;4991285;28;20191;-73
2023/12/24 03:29:46;;;;;;;2.13;1.50;;;9.40;99.90;;;;;;4992602;28;20546;-74
2023/12/24 03:32:12;;;;;;;2.90;1.40;;;9.40;99.90;;;;;;4987008;28;20206;-74
2023/12/24 03:34:38;;;;;;;1.70;1.27;;;9.40;99.90;;;;;;4989368;28;20195;-74
2023/12/24 03:37:03;;;;;;;1.77;1.07;;;9.30;99.90;;;;;;4993552;28;20179;-73
2023/12/24 03:39:29;;;;;;;1.10;1.00;;;9.40;99.90;;;;;;4996689;28;20433;-73
2023/12/24 03:41:55;;;;;;;1.73;0.90;;;9.40;99.90;;;;;;4996109;28;20198;-74
2023/12/24 03:44:21;;;;;;;0.97;0.50;;;9.40;99.90;;;;;;4995029;28;20628;-73
2023/12/24 03:46:46;;;;;;;1.43;0.77;;;9.40;99.90;;;;;;4996660;28;20279;-73
2023/12/24 03:49:12;;;;;;;0.70;0.60;;;9.30;99.90;;;;;;4995451;28;20473;-73
2023/12/24 03:51:38;;;;;;;1.13;0.63;;;9.40;99.90;;;;;;4997239;28;20203;-74
2023/12/24 03:54:03;;;;;;;1.07;0.50;;;9.40;99.90;;;;;;4995520;28;20195;-74
2023/12/24 03:56:29;;;;;;;0.60;0.40;;;9.40;99.90;;;;;;4996861;28;20187;-73
2023/12/24 03:58:55;;;;;;;0.50;0.47;;;9.40;99.90;;;;;;4995685;28;20184;-73
2023/12/24 04:01:27;;;;;;;0.60;0.60;;;9.40;99.90;;;;;;4994720;28;20194;-74
2023/12/24 04:03:52;;;;;;;0.60;0.50;;;9.40;99.90;;;;;;4992163;28;20183;-74
2023/12/24 04:06:19;;;;;;;0.67;0.67;;;9.40;99.90;;;;;;4989583;28;20431;-73
2023/12/24 04:08:44;;;;;;;0.70;0.70;;;9.40;99.90;;;;;;4997329;28;20685;-74
2023/12/24 04:11:15;;;;;;;0.90;0.80;;;9.50;99.90;;;;;;4994704;28;20429;-74
2023/12/24 04:13:41;;;;;;;0.80;0.60;;;9.50;99.90;;;;;;4997177;28;20198;-74
2023/12/24 04:16:07;;;;;;;0.80;0.60;;;9.50;99.90;;;;;;4994997;28;20872;-74
2023/12/24 04:18:33;;;;;;;0.80;0.70;;;9.50;99.90;;;;;;4997711;28;20514;-74
2023/12/24 04:20:59;;;;;;;0.80;0.70;;;9.50;99.90;;;;;;4995314;28;20460;-73
2023/12/24 04:23:25;;;;;;;0.80;0.67;;;9.50;99.90;;;;;;4997090;28;20418;-73
2023/12/24 04:25:51;;;;;;;0.60;0.60;;;9.50;99.90;;;;;;4995685;28;20492;-74
2023/12/24 04:28:16;;;;;;;0.60;0.53;;;9.50;99.90;;;;;;4994178;28;20216;-75
2023/12/24 04:30:42;;;;;;;0.57;0.50;;;9.50;99.90;;;;;;4997484;28;20603;-74
2023/12/24 04:33:08;;;;;;;0.67;0.60;;;9.50;99.90;;;;;;4995345;28;20233;-75
2023/12/24 04:35:33;;;;;;;1.10;0.80;;;9.50;99.90;;;;;;4997098;28;20183;-74
2023/12/24 04:37:59;;;;;;;0.70;0.67;;;9.60;99.90;;;;;;4988774;28;20540;-73
2023/12/24 04:40:25;;;;;;;0.60;0.57;;;9.50;99.90;;;;;;4993426;28;20581;-74
2023/12/24 04:42:51;;;;;;;1.10;0.80;;;9.50;99.90;;;;;;4995302;28;20452;-74
2023/12/24 04:45:17;;;;;;;0.73;0.70;;;9.50;99.90;;;;;;4994388;28;20446;-74
2023/12/24 04:47:42;;;;;;;0.60;0.60;;;9.60;99.90;;;;;;4997435;28;20520;-75
2023/12/24 04:50:08;;;;;;;1.43;0.67;;;9.50;99.90;;;;;;4993991;28;20188;-74
2023/12/24 04:52:35;;;;;;;0.70;0.57;;;9.50;99.90;;;;;;4992308;28;20198;-74
2023/12/24 04:55:05;;;;;;;2.53;0.50;;;9.50;99.90;;;;;;4991823;28;20541;-73
2023/12/24 04:57:33;;;;;;;0.80;0.50;;;9.50;99.90;;;;;;4991308;28;20467;-74
2023/12/24 04:59:59;;;;;;;0.60;0.57;;;9.50;99.90;;;;;;4987224;28;20423;-74
2023/12/24 05:02:25;;;;;;;0.80;0.80;;;9.60;99.90;;;;;;4993267;28;20495;-74
2023/12/24 05:04:54;;;;;;;0.60;0.50;;;9.60;99.90;;;;;;4992026;28;20179;-74
2023/12/24 05:07:22;;;;;;;0.70;0.67;;;9.60;99.90;;;;;;4988512;28;20286;-74
2023/12/24 05:09:48;;;;;;;1.37;0.60;;;9.60;99.90;;;;;;4979030;28;20462;-74
2023/12/24 05:12:14;;;;;;;0.80;0.80;;;9.60;99.90;;;;;;4994597;28;20978;-72
2023/12/24 05:14:40;;;;;;;0.80;0.60;;;9.60;99.90;;;;;;4989815;28;20796;-74
2023/12/24 05:17:05;;;;;;;0.60;0.60;;;9.60;99.90;;;;;;4990698;28;20230;-74
2023/12/24 05:19:31;;;;;;;0.60;0.60;;;9.60;99.90;;;;;;4996138;28;20434;-73
2023/12/24 05:21:57;;;;;;;0.53;0.50;;;9.50;99.90;;;;;;4994728;28;20191;-73
2023/12/24 05:24:22;;;;;;;0.60;0.60;;;9.50;99.90;;;;;;4995517;28;20187;-73
2023/12/24 05:26:48;;;;;;;0.70;0.70;;;9.50;99.90;;;;;;4994656;28;20196;-73
2023/12/24 05:29:14;;;;;;;0.80;0.70;;;9.50;99.90;;;;;;4988673;28;20246;-73
2023/12/24 05:31:40;;;;;;;0.60;0.50;;;9.50;99.90;;;;;;4994494;28;21480;-73
2023/12/24 05:34:07;;;;;;;0.70;0.70;;;9.50;99.90;;;;;;4995180;28;20628;-72
2023/12/24 05:36:35;;;;;;;2.20;0.70;;;9.50;99.90;;;;;;4997525;28;20476;-72
2023/12/24 05:39:02;;;;;;;1.10;0.60;;;9.50;99.90;;;;;;4994545;28;20487;-73
2023/12/24 05:41:28;;;;;;;0.70;0.70;;;9.50;99.90;;;;;;4997830;28;20940;-72
2023/12/24 05:43:54;;;;;;;0.60;0.50;;;9.60;99.90;;;;;;4994619;28;20443;-73
2023/12/24 05:46:20;;;;;;;0.80;0.80;;;9.60;99.90;;;;;;4986570;28;20188;-75
2023/12/24 05:48:46;;;;;;;1.20;0.70;;;9.60;99.90;;;;;;4991811;28;20215;-74
2023/12/24 05:51:11;;;;;;;0.60;0.60;;;9.60;99.90;;;;;;4994395;28;20434;-74
2023/12/24 05:53:37;;;;;;;0.67;0.63;;;9.60;99.90;;;;;;4997295;28;20626;-74
2023/12/24 05:56:03;;;;;;;0.60;0.60;;;9.60;99.90;;;;;;4994040;28;20190;-73
2023/12/24 05:58:29;;;;;;;0.50;0.50;;;9.60;99.90;;;;;;4996361;28;20459;-74
2023/12/24 06:00:54;;;;;;;0.50;0.43;;;9.70;99.90;;;;;;4993632;28;20267;-73
2023/12/24 06:03:20;;;;;;;0.60;0.50;;;9.60;99.90;;;;;;4994912;28;20179;-73
2023/12/24 06:05:46;;;;;;;0.50;0.40;;;9.60;99.90;;;;;;4994120;28;20236;-73
2023/12/24 06:08:17;;;;;;;0.50;0.43;;;9.60;99.90;;;;;;4993942;28;20542;-74
2023/12/24 06:10:44;;;;;;;0.50;0.50;;;9.60;99.90;;;;;;4997444;28;20180;-73
2023/12/24 06:13:11;;;;;;;0.67;0.60;;;9.60;99.90;;;;;;4994220;28;20523;-74
2023/12/24 06:15:36;;;;;;;0.47;0.40;;;9.60;99.90;;;;;;4996903;28;20560;-73
2023/12/24 06:18:04;;;;;;;0.50;0.40;;;9.60;99.90;;;;;;4988991;28;20553;-73
2023/12/24 06:20:31;;;;;;;0.87;0.57;;;9.70;99.90;;;;;;4990738;28;20227;-73
2023/12/24 06:23:00;;;;;;;0.70;0.70;;;9.60;99.90;;;;;;4993824;28;20436;-74
2023/12/24 06:25:26;;;;;;;0.60;0.60;;;9.60;99.90;;;;;;4996382;28;20475;-73
2023/12/24 06:27:52;;;;;;;0.43;0.40;;;9.60;99.90;;;;;;4986321;28;20446;-73
2023/12/24 06:30:19;;;;;;;0.60;0.60;;;9.60;99.90;;;;;;4987566;28;21255;-74
2023/12/24 06:32:46;;;;;;;0.60;0.60;;;9.60;99.90;;;;;;4994218;28;20245;-73
2023/12/24 06:35:12;;;;;;;0.50;0.40;;;9.60;99.90;;;;;;4984906;28;20843;-74
2023/12/24 06:37:38;;;;;;;0.60;0.60;;;9.60;99.90;;;;;;4986945;28;20462;-73
2023/12/24 06:40:06;;;;;;;0.70;0.70;;;9.60;99.90;;;;;;4985023;28;20559;-72
2023/12/24 06:42:32;;;;;;;0.60;0.50;;;9.60;99.90;;;;;;4986198;28;20188;-73
2023/12/24 06:44:57;;;;;;;0.70;0.70;;;9.70;99.90;;;;;;4986148;28;20451;-73
2023/12/24 06:47:23;;;;;;;0.67;0.60;;;9.70;99.90;;;;;;4985862;28;20872;-73
2023/12/24 06:49:49;;;;;;;1.53;0.73;;;9.60;99.90;;;;;;4983147;28;20223;-74
2023/12/24 06:52:14;;;;;;;1.00;0.70;;;9.70;99.90;;;;;;4986740;28;20194;-75
2023/12/24 06:54:40;;;;;;;2.20;0.80;;;9.70;99.90;;;;;;4989918;28;20270;-74
2023/12/24 06:57:08;;;;;;;1.00;0.73;;;9.70;99.90;;;;;;4995399;28;20176;-74
2023/12/24 06:59:34;;;;;;;0.70;0.60;;;9.70;99.90;;;;;;4991250;28;20267;-74
2023/12/24 07:02:00;;;;;;;1.00;0.90;;;9.70;99.90;;;;;;4991486;28;20949;-74
2023/12/24 07:04:25;;;;;;;0.90;0.90;;;9.70;99.90;;;;;;4994819;28;20442;-73
2023/12/24 07:06:51;;;;;;;0.70;0.70;;;9.70;99.90;;;;;;4989030;28;20415;-74
2023/12/24 07:09:17;;;;;;;1.00;0.90;;;9.70;99.90;;;;;;5000767;28;20705;-75
2023/12/24 07:11:42;;;;;;;1.13;0.70;;;9.70;99.90;;;;;;4984992;28;20180;-74
2023/12/24 07:14:08;;;;;;;1.23;0.90;;;9.70;99.90;;;;;;4986257;28;20188;-75
2023/12/24 07:16:34;;;;;;;0.83;0.80;;;9.70;99.90;;;;;;4983417;28;20240;-74
2023/12/24 07:19:02;;;;;;;1.00;0.90;;;9.70;99.90;;;;;;4988569;28;20321;-74
2023/12/24 07:21:28;;;;;;;0.67;0.67;;;9.70;99.90;;;;;;4984435;28;20216;-74
2023/12/24 07:23:54;;;;;;;1.00;0.90;;;9.80;99.90;;;;;;4987163;28;20455;-74
2023/12/24 07:26:20;;;;;;;1.37;0.80;;;9.80;99.90;;;;;;4987935;28;20251;-74
2023/12/24 07:28:47;;;;;;;0.80;0.80;;;9.80;99.90;;;;;;4984796;28;20230;-75
2023/12/24 07:31:15;;;;;;;0.80;0.80;;;9.70;99.90;;;;;;4985897;28;20489;-74
2023/12/24 07:33:41;;;;;;;0.60;0.57;;;9.80;99.90;;;;;;4987896;28;20542;-74
2023/12/24 07:36:07;;;;;;;1.13;0.70;;;9.80;99.90;;;;;;4982584;28;20943;-73
2023/12/24 07:38:34;;;;;;;0.93;0.93;;;9.80;99.90;;;;;;4985078;28;20437;-74
2023/12/24 07:41:00;;;;;;;1.53;0.93;;;9.80;99.90;;;;;;4986134;28;20461;-74
2023/12/24 07:43:27;;;;;;;1.20;1.10;;;9.80;99.90;;;;;;4987134;28;20940;-73
2023/12/24 07:45:52;;;;;;;1.00;0.90;;;9.80;99.90;;;;;;4989426;28;20215;-74
2023/12/24 07:48:18;;;;;;;0.60;0.60;;;9.80;99.90;;;;;;4991332;28;20525;-75
2023/12/24 07:50:44;;;;;;;1.43;1.13;;;9.80;99.90;;;;;;4990552;28;20195;-73
2023/12/24 07:53:10;;;;;;;0.80;0.73;;;9.80;99.90;;;;;;4991026;28;20176;-74
2023/12/24 07:55:35;;;;;;;0.93;0.83;;;9.80;99.90;;;;;;4988212;28;20636;-73
2023/12/24 07:58:01;;;;;;;0.80;0.80;;;9.80;99.90;;;;;;4985899;28;20267;-73
2023/12/24 08:00:27;;;;;;;0.60;0.60;;;9.80;99.90;;;;;;5085742;28;20184;-74
2023/12/24 08:02:52;;;;;;;0.90;0.90;;;9.80;99.90;;;;;;4985706;28;20184;-74
2023/12/24 08:05:18;;;;;;;1.00;0.90;;;9.80;99.90;;;;;;4988843;28;20275;-74
2023/12/24 08:07:44;;;;;;;0.93;0.70;;;9.80;99.90;;;;;;4984053;28;20192;-74
2023/12/24 08:10:10;;;;;;;1.00;0.80;;;9.80;99.90;;;;;;4987626;28;20564;-74
2023/12/24 08:12:35;;;;;;;0.70;0.70;;;9.80;99.90;;;;;;4983080;28;20246;-74
2023/12/24 08:15:01;;;;;;;1.23;0.90;;;9.80;99.90;;;;;;4982638;28;20260;-72
2023/12/24 08:17:27;;;;;;;0.90;0.80;;;9.80;99.90;;;;;;4984257;28;20192;-73
2023/12/24 08:19:54;;;;;;;0.80;0.80;;;9.80;99.90;;;;;;4987463;28;20461;-72
2023/12/24 08:22:20;;;;;;;0.80;0.80;;;9.80;99.90;;;;;;4988190;28;20180;-70
2023/12/24 08:24:46;;;;;;;0.80;0.80;;;9.90;99.90;;;;;;4990535;28;20444;-72
2023/12/24 08:27:12;;;;;;;0.60;0.50;;;9.90;99.90;;;;;;4991149;28;21128;-73
2023/12/24 08:29:37;;;;;;;0.67;0.67;;;9.90;99.90;;;;;;4990962;28;20228;-73
2023/12/24 08:32:03;;;;;;;0.67;0.67;;;9.80;99.90;;;;;;5005346;28;20219;-73
2023/12/24 08:34:29;;;;;;;0.90;0.90;;;9.90;99.90;;;;;;4991716;28;20183;-72
2023/12/24 08:36:55;;;;;;;0.80;0.80;;;9.90;99.90;;;;;;4990754;28;20910;-71
2023/12/24 08:39:20;;;;;;;1.07;0.80;;;9.90;99.90;;;;;;4992179;28;20596;-72
2023/12/24 08:41:46;;;;;;;0.90;0.80;;;9.90;99.90;;;;;;4989799;28;20287;-71
2023/12/24 08:44:12;;;;;;;0.70;0.67;;;9.90;99.90;;;;;;4991904;28;20188;-71
2023/12/24 08:46:39;;;;;;;1.47;0.97;;;9.90;99.90;;;;;;4990284;28;20194;-71
2023/12/24 08:49:05;;;;;;;0.90;0.70;;;9.90;99.90;;;;;;4991280;28;20483;-72
2023/12/24 08:51:31;;;;;;;1.63;0.90;;;9.90;99.90;;;;;;4991890;28;20430;-73
2023/12/24 08:53:56;;;;;;;0.90;0.70;;;9.90;99.90;;;;;;4989755;28;20183;-72
2023/12/24 08:56:23;;;;;;;0.70;0.70;;;9.90;99.90;;;;;;4991309;28;20244;-71
2023/12/24 08:58:48;;;;;;;0.73;0.73;;;9.90;99.90;;;;;;4987552;28;20191;-74
2023/12/24 09:01:14;;;;;;;1.10;0.63;;;9.90;99.90;;;;;;4990312;28;20839;-73
2023/12/24 09:03:40;;;;;;;2.93;0.90;;;9.90;99.90;;;;;;4986551;28;20187;-72
2023/12/24 09:06:05;;;;;;;0.80;0.73;;;9.90;99.90;;;;;;4982975;28;20192;-72
2023/12/24 09:08:31;;;;;;;0.70;0.60;;;9.90;99.90;;;;;;4987255;28;20222;-72
2023/12/24 09:10:57;;;;;;;1.00;0.90;;;9.90;99.90;;;;;;4987185;28;20713;-72
2023/12/24 09:13:22;;;;;;;1.00;0.87;;;9.90;99.90;;;;;;4989313;28;20282;-73
2023/12/24 09:15:48;;;;;;;0.80;0.80;;;9.90;99.90;;;;;;4984840;28;20204;-72
2023/12/24 09:18:14;;;;;;;0.90;0.73;;;9.90;99.90;;;;;;4988212;28;20541;-72
2023/12/24 09:20:39;;;;;;;0.83;0.77;;;9.90;99.90;;;;;;4991178;28;20868;-72
2023/12/24 09:23:05;;;;;;;1.10;0.80;;;9.90;99.90;;;;;;4991793;28;20191;-72
2023/12/24 09:25:31;;;;;;;0.90;0.80;;;9.90;99.90;;;;;;4985171;28;20195;-73
2023/12/24 09:27:57;;;;;;;0.90;0.90;;;9.90;99.90;;;;;;4987681;28;20188;-73
2023/12/24 09:30:24;;;;;;;1.63;1.00;;;10.00;99.90;;;;;;4993735;28;21160;-72
2023/12/24 09:32:50;;;;;;;0.90;0.80;;;10.00;99.90;;;;;;4989327;28;20204;-72
2023/12/24 09:35:15;;;;;;;1.10;1.00;;;10.00;99.90;;;;;;4991849;28;20438;-72
2023/12/24 09:37:42;;;;;;;0.67;0.67;;;10.00;99.90;;;;;;4993196;28;20198;-72
2023/12/24 09:40:08;;;;;;;0.83;0.83;;;10.00;99.90;;;;;;4992855;28;20188;-72
2023/12/24 09:42:35;;;;;;;0.90;0.90;;;10.00;99.90;;;;;;4993336;28;20508;-73
2023/12/24 09:45:01;;;;;;;1.10;1.00;;;10.00;99.90;;;;;;4987601;28;20191;-72
2023/12/24 09:47:27;;;;;;;0.93;0.90;;;10.00;99.90;;;;;;4992713;28;20509;-72
2023/12/24 09:49:53;;;;;;;1.30;1.20;;;10.00;99.90;;;;;;4989735;28;20492;-73
2023/12/24 09:52:21;;;;;;;1.47;0.97;;;10.00;99.90;;;;;;4987182;28;20439;-72
2023/12/24 09:54:47;;;;;;;1.13;1.00;;;10.00;99.90;;;;;;4990937;28;20661;-72
2023/12/24 09:57:12;;;;;;;1.03;0.93;;;10.00;99.90;;;;;;4989655;28;20771;-73
2023/12/24 09:59:38;;;;;;;1.77;0.90;;;10.00;99.90;;;;;;4993202;28;20434;-72
2023/12/24 10:02:04;;;;;;;0.97;0.87;;;10.00;99.90;;;;;;4991293;28;20191;-73
2023/12/24 10:04:29;;;;;;;0.97;0.73;;;10.00;99.90;;;;;;4992344;28;20200;-72
2023/12/24 10:06:57;;;;;;;1.27;1.17;;;10.10;99.90;;;;;;4991668;28;20187;-72
2023/12/24 10:09:40;;;;;;;1.37;1.00;;;10.10;99.90;;;;;;4984333;28;20291;-72
2023/12/24 10:12:08;;;;;;;1.10;1.00;;;10.10;99.90;;;;;;4985927;28;20510;-72
2023/12/24 10:14:35;;;;;;;1.10;0.97;;;10.10;99.90;;;;;;4986812;28;20828;-72
2023/12/24 10:17:03;;;;;;;0.93;0.90;;;10.10;99.90;;;;;;4992250;28;20434;-73
2023/12/24 10:19:29;;;;;;;1.00;1.00;;;10.00;99.90;;;;;;4986626;28;20529;-72
2023/12/24 10:22:06;;;;;;;1.30;1.20;;;10.10;99.90;;;;;;4985423;28;20431;-72
2023/12/24 10:24:34;;;;;;;1.23;1.10;;;10.10;99.90;;;;;;4986694;28;20443;-73
2023/12/24 10:27:11;;;;;;;1.23;1.13;;;10.10;99.90;;;;;;4984752;28;20443;-71
2023/12/24 10:29:38;;;;;;;0.80;0.80;;;10.10;99.90;;;;;;4986182;28;20488;-71
2023/12/24 10:32:04;;;;;;;1.20;1.10;;;10.10;99.90;;;;;;4988798;28;20556;-72
2023/12/24 10:34:32;;;;;;;1.40;1.30;;;10.10;99.90;;;;;;4985754;28;20442;-72
2023/12/24 10:36:59;;;;;;;1.17;1.07;;;10.10;99.90;;;;;;4987013;28;20427;-72
2023/12/24 10:39:25;;;;;;;1.17;1.07;;;10.10;99.90;;;;;;4994195;28;20973;-72
2023/12/24 10:41:55;;;;;;;1.10;1.00;;;10.10;99.90;;;;;;4992318;28;20467;-72
2023/12/24 10:44:22;;;;;;;1.20;1.10;;;10.20;99.90;;;;;;4993024;28;20420;-72
2023/12/24 10:46:48;;;;;;;1.57;1.10;;;10.10;99.90;;;;;;4992567;28;21154;-72
2023/12/24 10:49:14;;;;;;;0.80;0.80;;;10.20;99.90;;;;;;4993045;28;20466;-72
2023/12/24 10:51:39;;;;;;;1.90;1.30;;;10.20;99.90;;;;;;4992984;28;20484;-72
2023/12/24 10:54:07;;;;;;;0.83;0.80;;;10.20;99.90;;;;;;4993519;28;20762;-72
2023/12/24 10:56:54;;;;;;;1.00;0.90;;;10.20;99.90;;;;;;4993226;28;20792;-72
2023/12/24 10:59:49;;;;;;;1.27;1.17;;;10.20;99.90;;;;;;4986698;28;20439;-72
2023/12/24 11:02:16;;;;;;;1.20;1.10;;;10.20;99.90;;;;;;4994147;28;20451;-72
2023/12/24 11:04:45;;;;;;;1.40;1.30;;;10.20;99.90;;;;;;4982902;28;21258;-72
2023/12/24 11:07:45;;;;;;;1.40;1.30;;;10.30;99.90;;;;;;4985084;28;20492;-72
2023/12/24 11:10:38;;;;;;;1.60;1.43;;;10.20;99.90;;;;;;4975865;28;21062;-72
2023/12/24 11:13:31;;;;;;;1.07;0.97;;;10.30;99.90;;;;;;4982107;28;21032;-73
2023/12/24 11:15:58;;;;;;;1.80;1.50;;;10.20;99.90;;;;;;5001998;28;20542;-72
2023/12/24 11:18:42;;;;;;;1.90;1.67;;;10.30;99.90;;;;;;4983649;28;20443;-72
2023/12/24 11:21:10;;;;;;;2.13;1.40;;;10.30;99.90;;;;;;4986223;28;20439;-72
2023/12/24 11:23:41;;;;;;;1.10;1.00;;;10.30;99.90;;;;;;4984816;28;20446;-72
2023/12/24 11:26:32;;;;;;;1.20;1.10;;;10.30;99.90;;;;;;4991901;28;20445;-73
2023/12/24 11:29:23;;;;;;;1.50;1.40;;;10.30;99.90;;;;;;4982144;28;20536;-73
2023/12/24 11:31:48;;;;;;;1.73;1.30;;;10.40;99.90;;;;;;4984996;28;21309;-73
2023/12/24 11:34:31;;;;;;;3.20;1.63;;;10.40;99.90;;;;;;4985819;28;20862;-73
2023/12/24 11:37:03;;;;;;;1.20;1.10;;;10.30;99.90;;;;;;4984549;28;20402;-72
2023/12/24 11:39:59;;;;;;;1.80;1.70;;;10.30;99.90;;;;;;4983540;28;20503;-72
2023/12/24 11:42:39;;;;;;;1.97;1.40;;;10.40;99.90;;;;;;4984922;28;20426;-72
2023/12/24 11:45:05;;;;;;;1.10;1.00;;;10.40;99.90;;;;;;4986880;28;20427;-72
2023/12/24 11:47:31;;;;;;;1.50;1.40;;;10.40;99.90;;;;;;4984999;28;20513;-73
2023/12/24 11:49:58;;;;;;;1.57;1.47;;;10.40;99.90;;;;;;4984454;28;20819;-72
2023/12/24 11:52:24;;;;;;;1.70;1.60;;;10.40;99.90;;;;;;4990624;28;20466;-72
2023/12/24 11:54:49;;;;;;;2.23;1.77;;;10.40;99.90;;;;;;4988149;28;20443;-73
2023/12/24 11:57:25;;;;;;;2.60;1.43;;;10.40;99.90;;;;;;4983885;28;20179;-73
2023/12/24 11:59:50;;;;;;;2.90;1.67;;;10.40;99.90;;;;;;4992143;28;20183;-73
2023/12/24 12:02:16;;;;;;;1.67;1.40;;;10.40;99.90;;;;;;4996456;28;20434;-73
2023/12/24 12:04:42;;;;;;;1.70;1.33;;;10.50;99.90;;;;;;4997852;28;20184;-73
2023/12/24 12:07:08;;;;;;;3.20;1.53;;;10.40;99.90;;;;;;4996344;28;20218;-73
2023/12/24 12:09:34;;;;;;;1.97;1.77;;;10.40;99.90;;;;;;4998690;28;20301;-73
2023/12/24 12:11:59;;;;;;;2.23;1.80;;;10.50;99.90;;;;;;4997043;28;21043;-73
2023/12/24 12:14:25;;;;;;;3.77;2.13;;;10.50;99.90;;;;;;4997479;28;20186;-73
2023/12/24 12:16:51;;;;;;;2.00;1.80;;;10.50;99.90;;;;;;4997311;28;20191;-73
2023/12/24 12:19:16;;;;;;;1.90;1.80;;;10.50;99.90;;;;;;4994302;28;20183;-73
2023/12/24 12:21:44;;;;;;;2.97;1.80;;;10.50;99.90;;;;;;4993784;28;20188;-73
2023/12/24 12:24:09;;;;;;;2.73;2.53;;;10.50;99.90;;;;;;4989636;28;20183;-72
2023/12/24 12:26:36;;;;;;;4.63;2.20;;;10.50;99.90;;;;;;4985509;28;20448;-73
2023/12/24 12:29:02;;;;;;;2.57;2.37;;;10.50;99.90;;;;;;4991000;28;20541;-73
2023/12/24 12:31:28;;;;;;;3.20;2.70;;;10.60;99.90;;;;;;4993955;28;20464;-73
2023/12/24 12:33:54;;;;;;;3.27;2.97;;;10.60;99.90;;;;;;4994101;28;20418;-73
2023/12/24 12:36:19;;;;;;;4.33;2.47;;;10.60;99.90;;;;;;4991153;28;20195;-73
2023/12/24 12:38:45;;;;;;;3.23;2.93;;;10.60;99.90;;;;;;5069929;28;20226;-73
2023/12/24 12:41:10;;;;;;;3.80;2.77;;;10.60;99.90;;;;;;4990253;28;20187;-73
2023/12/24 12:43:36;;;;;;;4.23;3.17;;;10.50;99.90;;;;;;4989541;28;20192;-73
2023/12/24 12:46:02;;;;;;;2.73;2.47;;;10.60;99.90;;;;;;4990081;28;20222;-73
2023/12/24 12:48:27;;;;;;;2.70;2.50;;;10.60;99.90;;;;;;4995981;28;20247;-73
2023/12/24 12:50:53;;;;;;;2.77;2.43;;;10.60;99.90;;;;;;4996783;28;20191;-73
2023/12/24 12:53:23;;;;;;;2.40;2.20;;;10.60;99.90;;;;;;4996619;28;20184;-73
2023/12/24 12:55:49;;;;;;;2.23;2.00;;;10.60;99.90;;;;;;4995940;28;21009;-73